Time;durP1;ratioP1;P1;durP2;ratioP2;P2;SDS_P1;SDS_P2;PMS_P1;PMS_P2;Temp;Humidity;BMP_temperature;BMP_pressure;BME280_temperature;BME280_humidity;BME280_pressure;Samples;Min_cycle;Max_cycle;Signal;HPM_P1;HPM_P2
2022/12/03 00:01:33;;;;;;;17.57;14.80;;;;;;;;;;4924661;28;20232;-81
2022/12/03 00:04:01;;;;;;;19.77;15.80;;;;;;;;;;4943403;28;20225;-82
2022/12/03 00:06:26;;;;;;;18.80;14.80;;;;;;;;;;4955561;28;20226;-82
2022/12/03 00:08:52;;;;;;;18.97;15.77;;;;;;;;;;4940612;28;20625;-83
2022/12/03 00:11:17;;;;;;;22.73;15.83;;;;;;;;;;4947439;28;20255;-80
2022/12/03 00:13:44;;;;;;;18.70;14.73;;;;;;;;;;4912921;29;20221;-80
2022/12/03 00:16:09;;;;;;;18.30;16.33;;;;;;;;;;4966527;28;20213;-81
2022/12/03 00:18:35;;;;;;;19.80;16.67;;;;;;;;;;4945150;28;20245;-81
2022/12/03 00:21:01;;;;;;;18.67;14.73;;;;;;;;;;4954347;28;20237;-82
2022/12/03 00:23:28;;;;;;;23.17;17.40;;;;;;;;;;4967354;28;20246;-83
2022/12/03 00:25:54;;;;;;;21.17;17.60;;;;;;;;;;4944449;28;20267;-81
2022/12/03 00:28:19;;;;;;;22.03;17.80;;;;;;;;;;4929512;28;20219;-83
2022/12/03 00:30:45;;;;;;;21.53;16.97;;;;;;;;;;4944572;28;20238;-84
2022/12/03 00:33:10;;;;;;;20.90;17.43;;;;;;;;;;4969718;28;20226;-81
2022/12/03 00:35:36;;;;;;;20.60;17.37;;;;;;;;;;4942699;28;20230;-83
2022/12/03 00:38:04;;;;;;;22.53;16.77;;;;;;;;;;4925128;28;20245;-82
2022/12/03 00:40:29;;;;;;;23.37;17.77;;;;;;;;;;4934772;28;20256;-83
2022/12/03 00:42:55;;;;;;;21.17;17.53;;;;;;;;;;4925860;28;20226;-79
2022/12/03 00:45:21;;;;;;;22.53;16.90;;;;;;;;;;4970311;28;20244;-82
2022/12/03 00:47:46;;;;;;;21.03;16.87;;;;;;;;;;4942073;28;20226;-80
2022/12/03 00:50:12;;;;;;;21.17;18.00;;;;;;;;;;4929859;28;20706;-81
2022/12/03 00:52:37;;;;;;;18.87;16.87;;;;;;;;;;4950975;28;20226;-81
2022/12/03 00:55:05;;;;;;;20.87;17.33;;;;;;;;;;4958985;28;20242;-79
2022/12/03 00:57:33;;;;;;;21.07;17.80;;;;;;;;;;4935510;28;20228;-81
2022/12/03 00:59:59;;;;;;;20.33;16.73;;;;;;;;;;4938054;28;20276;-79
2022/12/03 01:02:24;;;;;;;20.90;17.23;;;;;;;;;;4947477;28;20230;-83
2022/12/03 01:04:50;;;;;;;19.97;17.13;;;;;;;;;;4975752;28;20230;-83
2022/12/03 01:07:15;;;;;;;22.80;17.70;;;;;;;;;;4923354;28;20223;-82
2022/12/03 01:09:41;;;;;;;23.63;17.80;;;;;;;;;;4937686;28;20226;-83
2022/12/03 01:12:06;;;;;;;23.03;17.27;;;;;;;;;;4920142;28;20283;-82
2022/12/03 01:14:32;;;;;;;23.53;18.47;;;;;;;;;;4941312;28;20232;-82
2022/12/03 01:17:00;;;;;;;26.23;17.20;;;;;;;;;;4915035;28;20225;-80
2022/12/03 01:19:25;;;;;;;21.93;17.83;;;;;;;;;;4928834;28;20677;-83
2022/12/03 01:21:51;;;;;;;28.43;18.00;;;;;;;;;;4930930;28;20230;-82
2022/12/03 01:24:19;;;;;;;25.17;18.27;;;;;;;;;;4940671;28;20237;-79
2022/12/03 01:26:49;;;;;;;22.27;17.70;;;;;;;;;;4937957;28;20214;-82
2022/12/03 01:29:15;;;;;;;21.90;18.83;;;;;;;;;;4938324;28;20229;-81
2022/12/03 01:34:25;;;;;;;21.53;17.70;;;;;;;;;;4957147;28;20217;-79
2022/12/03 01:36:54;;;;;;;22.50;18.30;;;;;;;;;;4953219;28;20663;-80
2022/12/03 01:39:19;;;;;;;22.30;18.30;;;;;;;;;;4941856;28;20778;-82
2022/12/03 01:41:45;;;;;;;21.33;18.40;;;;;;;;;;4939171;28;20253;-79
2022/12/03 01:44:16;;;;;;;21.73;18.10;;;;;;;;;;4935714;28;20221;-80
2022/12/03 01:46:44;;;;;;;21.20;17.30;;;;;;;;;;4920593;28;20222;-79
2022/12/03 01:49:20;;;;;;;23.80;18.13;;;;;;;;;;4922224;28;20225;-79
2022/12/03 01:51:46;;;;;;;20.83;18.33;;;;;;;;;;4926431;28;20269;-78
2022/12/03 01:54:34;;;;;;;24.73;19.50;;;;;;;;;;4925906;28;20682;-80
2022/12/03 01:56:59;;;;;;;22.23;17.90;;;;;;;;;;4968912;28;20253;-79
2022/12/03 01:59:36;;;;;;;20.60;17.77;;;;;;;;;;4942720;28;20226;-81
2022/12/03 02:02:21;;;;;;;20.50;18.30;;;;;;;;;;4947407;28;20238;-82
2022/12/03 02:04:47;;;;;;;24.60;18.77;;;;;;;;;;4936458;28;20645;-80
2022/12/03 02:07:20;;;;;;;24.73;17.67;;;;;;;;;;4943048;28;20222;-80
2022/12/03 02:09:46;;;;;;;24.23;19.00;;;;;;;;;;4939101;28;20312;-77
2022/12/03 02:12:12;;;;;;;23.37;18.40;;;;;;;;;;4928256;28;20637;-82
2022/12/03 02:14:37;;;;;;;21.13;18.60;;;;;;;;;;4993269;28;20237;-80
2022/12/03 02:17:03;;;;;;;24.77;19.43;;;;;;;;;;4921837;28;20288;-81
2022/12/03 02:19:28;;;;;;;22.43;19.03;;;;;;;;;;4941967;28;20222;-81
2022/12/03 02:22:03;;;;;;;22.63;17.57;;;;;;;;;;4927048;28;20238;-80
2022/12/03 02:24:31;;;;;;;24.67;19.37;;;;;;;;;;4970660;28;20235;-80
2022/12/03 02:26:56;;;;;;;23.67;18.20;;;;;;;;;;4948714;28;20721;-83
2022/12/03 02:29:23;;;;;;;26.17;18.53;;;;;;;;;;4964190;28;20322;-79
2022/12/03 02:31:49;;;;;;;24.87;18.97;;;;;;;;;;4925798;28;20218;-81
2022/12/03 02:34:33;;;;;;;24.40;18.93;;;;;;;;;;4945561;28;20237;-81
2022/12/03 02:36:59;;;;;;;22.13;18.43;;;;;;;;;;4943323;28;20320;-82
2022/12/03 02:39:27;;;;;;;22.77;19.10;;;;;;;;;;4943408;28;20237;-81
2022/12/03 02:44:42;;;;;;;25.97;19.47;;;;;;;;;;4949643;28;20377;-82
2022/12/03 02:47:12;;;;;;;21.67;18.37;;;;;;;;;;4913342;28;20709;-81
2022/12/03 02:49:38;;;;;;;24.50;18.60;;;;;;;;;;4927627;28;20377;-80
2022/12/03 02:52:03;;;;;;;22.13;18.60;;;;;;;;;;4931370;28;20321;-79
2022/12/03 02:54:31;;;;;;;24.97;19.20;;;;;;;;;;4943401;28;20233;-79
2022/12/03 02:56:56;;;;;;;20.63;18.47;;;;;;;;;;4925383;28;20223;-81
2022/12/03 02:59:22;;;;;;;23.10;18.80;;;;;;;;;;4929104;28;20238;-80
2022/12/03 03:01:51;;;;;;;23.10;19.43;;;;;;;;;;4925978;28;20234;-78
2022/12/03 03:04:16;;;;;;;23.13;18.30;;;;;;;;;;4931730;28;20240;-81
2022/12/03 03:06:45;;;;;;;23.57;19.13;;;;;;;;;;4933486;28;20613;-81
2022/12/03 03:09:11;;;;;;;26.03;19.33;;;;;;;;;;4985146;28;20313;-81
2022/12/03 03:11:43;;;;;;;22.60;19.17;;;;;;;;;;4940906;28;20225;-78
2022/12/03 03:14:09;;;;;;;24.43;19.50;;;;;;;;;;4987345;28;20234;-79
2022/12/03 03:16:35;;;;;;;26.13;19.63;;;;;;;;;;4923112;28;20594;-79
2022/12/03 03:19:01;;;;;;;27.07;19.67;;;;;;;;;;4931060;28;20226;-78
2022/12/03 03:21:29;;;;;;;26.70;19.47;;;;;;;;;;4928202;28;20222;-80
2022/12/03 03:23:54;;;;;;;24.23;20.20;;;;;;;;;;4929088;28;20281;-81
2022/12/03 03:26:22;;;;;;;25.57;20.00;;;;;;;;;;4945287;28;20220;-82
2022/12/03 03:28:48;;;;;;;24.03;20.20;;;;;;;;;;4925107;28;20746;-80
2022/12/03 03:31:15;;;;;;;26.17;19.57;;;;;;;;;;4929153;28;20221;-80
2022/12/03 03:33:41;;;;;;;28.10;20.60;;;;;;;;;;4928379;28;20221;-81
2022/12/03 03:36:06;;;;;;;27.30;21.30;;;;;;;;;;4911074;28;20621;-82
2022/12/03 03:38:32;;;;;;;26.60;20.57;;;;;;;;;;4944793;28;20746;-81
2022/12/03 03:41:00;;;;;;;26.17;19.30;;;;;;;;;;4934462;28;20222;-79
2022/12/03 03:43:26;;;;;;;25.67;21.23;;;;;;;;;;4926988;28;20219;-83
2022/12/03 03:45:52;;;;;;;26.47;21.90;;;;;;;;;;4930135;28;20303;-79
2022/12/03 03:48:17;;;;;;;27.87;21.33;;;;;;;;;;4922156;28;20249;-82
2022/12/03 03:50:43;;;;;;;27.03;21.60;;;;;;;;;;4961313;28;20249;-81
2022/12/03 03:53:08;;;;;;;24.77;19.33;;;;;;;;;;4916901;28;20343;-80
2022/12/03 03:55:34;;;;;;;24.17;20.30;;;;;;;;;;4939151;28;20230;-79
2022/12/03 03:58:02;;;;;;;21.77;18.33;;;;;;;;;;4956754;28;20230;-79
2022/12/03 04:00:28;;;;;;;23.17;19.33;;;;;;;;;;4966363;28;20226;-81
2022/12/03 04:02:54;;;;;;;26.97;20.03;;;;;;;;;;4929132;28;20234;-82
2022/12/03 04:05:20;;;;;;;23.80;19.60;;;;;;;;;;4931352;28;20230;-82
2022/12/03 04:07:46;;;;;;;23.90;19.00;;;;;;;;;;4938452;28;20227;-81
2022/12/03 04:13:01;;;;;;;24.07;19.43;;;;;;;;;;4961423;28;20310;-80
2022/12/03 04:15:29;;;;;;;24.93;19.83;;;;;;;;;;4941066;28;20238;-81
2022/12/03 04:20:40;;;;;;;25.43;20.13;;;;;;;;;;4949477;28;20545;-80
2022/12/03 04:23:05;;;;;;;25.37;18.77;;;;;;;;;;4930340;28;20249;-82
2022/12/03 04:35:41;;;;;;;27.30;20.23;;;;;;;;;;4955115;28;20317;-78
2022/12/03 04:36:54;;;;;;;24.37;19.30;;;;;;;;;;4950933;28;20366;-81
2022/12/03 04:39:19;;;;;;;27.57;20.53;;;;;;;;;;4930665;28;20246;-79
2022/12/03 04:41:47;;;;;;;25.03;20.10;;;;;;;;;;4978319;28;20222;-80
2022/12/03 04:44:58;;;;;;;27.50;20.07;;;;;;;;;;4943677;28;20688;-81
2022/12/03 04:46:59;;;;;;;23.27;19.37;;;;;;;;;;4949360;28;20245;-81
2022/12/03 04:49:25;;;;;;;24.70;19.57;;;;;;;;;;4910376;28;20238;-83
2022/12/03 04:51:50;;;;;;;25.10;19.57;;;;;;;;;;4973006;28;20794;-82
2022/12/03 04:54:16;;;;;;;25.20;19.73;;;;;;;;;;4953383;28;20238;-81
2022/12/03 04:56:41;;;;;;;23.63;18.73;;;;;;;;;;4947538;28;20219;-76
2022/12/03 04:59:09;;;;;;;22.53;19.03;;;;;;;;;;4932060;28;20317;-83
2022/12/03 05:01:34;;;;;;;23.60;18.90;;;;;;;;;;4929826;28;20236;-81
2022/12/03 05:04:00;;;;;;;25.17;18.40;;;;;;;;;;4937940;28;20241;-80
2022/12/03 05:06:25;;;;;;;24.17;18.83;;;;;;;;;;4952388;28;21176;-81
2022/12/03 05:08:51;;;;;;;25.73;20.10;;;;;;;;;;4975325;28;20706;-82
2022/12/03 05:11:17;;;;;;;24.67;19.43;;;;;;;;;;4953843;28;20698;-80
2022/12/03 05:13:44;;;;;;;22.80;19.27;;;;;;;;;;4949082;28;20486;-81
2022/12/03 05:16:10;;;;;;;23.70;19.03;;;;;;;;;;4924727;28;20221;-80
2022/12/03 05:18:36;;;;;;;24.57;19.43;;;;;;;;;;4945304;28;20238;-79
2022/12/03 05:21:01;;;;;;;23.43;18.70;;;;;;;;;;4979336;28;20219;-82
2022/12/03 05:23:27;;;;;;;31.83;21.17;;;;;;;;;;4960107;28;21375;-80
2022/12/03 05:25:54;;;;;;;28.10;21.17;;;;;;;;;;4960930;28;20252;-80
2022/12/03 05:28:23;;;;;;;26.87;21.33;;;;;;;;;;4987655;28;20226;-82
2022/12/03 05:30:49;;;;;;;22.73;20.17;;;;;;;;;;4959325;28;20241;-80
2022/12/03 05:33:15;;;;;;;25.97;19.93;;;;;;;;;;4956304;28;20226;-80
2022/12/03 05:35:40;;;;;;;22.73;18.33;;;;;;;;;;4957732;28;20226;-82
2022/12/03 05:38:08;;;;;;;21.57;19.27;;;;;;;;;;4944312;28;20545;-82
2022/12/03 05:40:33;;;;;;;22.60;19.47;;;;;;;;;;4977752;28;20222;-78
2022/12/03 05:43:02;;;;;;;28.27;19.83;;;;;;;;;;4930384;28;20656;-80
2022/12/03 05:45:32;;;;;;;27.47;19.67;;;;;;;;;;4919543;28;20234;-82
2022/12/03 05:47:58;;;;;;;26.73;20.13;;;;;;;;;;4977679;28;20714;-82
2022/12/03 05:50:25;;;;;;;25.80;20.20;;;;;;;;;;4942650;28;20222;-81
2022/12/03 05:52:53;;;;;;;24.57;20.10;;;;;;;;;;4933487;28;20312;-81
2022/12/03 05:55:18;;;;;;;25.90;21.20;;;;;;;;;;4963693;28;20214;-81
2022/12/03 05:57:44;;;;;;;25.43;20.27;;;;;;;;;;4933792;28;20226;-79
2022/12/03 06:00:17;;;;;;;25.23;19.80;;;;;;;;;;4933082;28;20256;-78
2022/12/03 06:02:43;;;;;;;24.07;19.80;;;;;;;;;;4935939;28;20245;-83
2022/12/03 06:05:09;;;;;;;30.23;24.30;;;;;;;;;;4920845;28;20294;-80
2022/12/03 06:07:34;;;;;;;25.40;20.83;;;;;;;;;;4927958;28;20218;-77
2022/12/03 06:10:00;;;;;;;25.30;20.73;;;;;;;;;;4936613;28;20229;-80
2022/12/03 06:12:25;;;;;;;23.97;20.80;;;;;;;;;;4951078;28;20233;-82
2022/12/03 06:14:51;;;;;;;24.90;20.37;;;;;;;;;;4962545;28;20234;-82
2022/12/03 06:17:19;;;;;;;26.70;21.43;;;;;;;;;;4941747;28;20215;-81
2022/12/03 06:19:47;;;;;;;25.83;20.23;;;;;;;;;;4949432;28;20225;-82
2022/12/03 06:22:12;;;;;;;30.73;21.57;;;;;;;;;;4972716;28;20218;-81
2022/12/03 06:24:38;;;;;;;25.97;20.90;;;;;;;;;;4970193;28;20222;-81
2022/12/03 06:27:03;;;;;;;27.20;21.03;;;;;;;;;;4942943;28;20272;-80
2022/12/03 06:29:29;;;;;;;25.70;20.93;;;;;;;;;;4927187;28;20230;-81
2022/12/03 06:31:57;;;;;;;25.57;21.67;;;;;;;;;;4988753;28;20230;-80
2022/12/03 06:34:25;;;;;;;27.97;21.03;;;;;;;;;;4925869;28;20289;-82
2022/12/03 06:36:53;;;;;;;28.07;22.40;;;;;;;;;;4927867;28;20441;-81
2022/12/03 06:39:19;;;;;;;26.13;20.33;;;;;;;;;;4940538;28;20230;-80
2022/12/03 06:41:45;;;;;;;30.00;22.10;;;;;;;;;;4922617;28;20254;-81
2022/12/03 06:44:11;;;;;;;27.00;20.27;;;;;;;;;;4923183;28;20270;-81
2022/12/03 06:46:37;;;;;;;28.40;21.87;;;;;;;;;;4941354;28;20226;-82
2022/12/03 06:49:02;;;;;;;24.23;20.53;;;;;;;;;;4971469;28;20226;-81
2022/12/03 06:51:30;;;;;;;24.97;21.47;;;;;;;;;;4959587;28;20243;-81
2022/12/03 06:53:56;;;;;;;27.90;22.90;;;;;;;;;;4944722;28;20225;-81
2022/12/03 06:56:24;;;;;;;28.70;22.13;;;;;;;;;;4955654;28;20218;-82
2022/12/03 06:58:52;;;;;;;26.13;20.83;;;;;;;;;;4968499;28;20246;-80
2022/12/03 07:01:17;;;;;;;31.53;23.90;;;;;;;;;;4985801;28;20234;-81
2022/12/03 07:03:43;;;;;;;29.00;23.13;;;;;;;;;;4965291;28;20237;-80
2022/12/03 07:06:08;;;;;;;29.47;22.40;;;;;;;;;;4958445;28;20237;-81
2022/12/03 07:08:36;;;;;;;28.93;23.47;;;;;;;;;;4927785;28;20232;-83
2022/12/03 07:11:02;;;;;;;28.50;21.90;;;;;;;;;;4928323;28;21094;-82
2022/12/03 07:13:27;;;;;;;31.97;24.47;;;;;;;;;;4909345;28;20229;-83
2022/12/03 07:15:53;;;;;;;28.73;22.17;;;;;;;;;;4924361;28;20573;-81
2022/12/03 07:18:19;;;;;;;30.87;21.97;;;;;;;;;;4908048;28;20226;-83
2022/12/03 07:20:46;;;;;;;26.93;22.63;;;;;;;;;;4956374;28;20603;-82
2022/12/03 07:23:12;;;;;;;35.33;24.27;;;;;;;;;;4969216;28;20222;-82
2022/12/03 07:25:37;;;;;;;27.07;22.80;;;;;;;;;;4958268;28;20249;-83
2022/12/03 07:28:05;;;;;;;29.03;23.23;;;;;;;;;;4942680;28;20226;-82
2022/12/03 07:30:36;;;;;;;29.47;22.77;;;;;;;;;;4943416;28;20286;-79
2022/12/03 07:33:01;;;;;;;28.57;22.63;;;;;;;;;;4928297;28;20317;-82
2022/12/03 07:35:27;;;;;;;34.80;23.50;;;;;;;;;;4922760;28;20226;-82
2022/12/03 07:37:54;;;;;;;27.43;22.30;;;;;;;;;;4975421;28;20233;-83
2022/12/03 07:40:22;;;;;;;29.53;24.03;;;;;;;;;;4924960;28;20227;-80
2022/12/03 07:42:48;;;;;;;28.43;22.07;;;;;;;;;;4936181;28;20230;-81
2022/12/03 07:45:14;;;;;;;31.07;23.07;;;;;;;;;;4927710;28;20325;-78
2022/12/03 07:47:39;;;;;;;27.07;22.77;;;;;;;;;;4924835;28;20222;-80
2022/12/03 07:50:09;;;;;;;28.07;22.50;;;;;;;;;;4958280;28;20226;-80
2022/12/03 07:52:34;;;;;;;27.73;22.53;;;;;;;;;;4930934;28;20253;-82
2022/12/03 07:55:00;;;;;;;29.13;23.27;;;;;;;;;;4958142;28;20734;-83
2022/12/03 07:57:28;;;;;;;29.40;23.63;;;;;;;;;;4955302;28;20226;-79
2022/12/03 07:59:56;;;;;;;30.20;22.87;;;;;;;;;;4958610;28;20285;-83
2022/12/03 08:02:21;;;;;;;28.03;21.97;;;;;;;;;;4934107;28;20794;-83
2022/12/03 08:04:52;;;;;;;26.20;22.27;;;;;;;;;;4966476;28;20234;-82
2022/12/03 08:07:20;;;;;;;28.97;23.43;;;;;;;;;;4905465;28;20222;-80
2022/12/03 08:09:45;;;;;;;29.73;23.13;;;;;;;;;;4931775;28;20248;-81
2022/12/03 08:12:14;;;;;;;27.60;23.57;;;;;;;;;;4940352;28;20227;-80
2022/12/03 08:14:45;;;;;;;32.40;24.27;;;;;;;;;;4940561;28;20296;-82
2022/12/03 08:17:11;;;;;;;31.77;24.33;;;;;;;;;;4919671;28;20265;-80
2022/12/03 08:19:37;;;;;;;32.70;24.17;;;;;;;;;;4926285;28;20250;-81
2022/12/03 08:22:11;;;;;;;29.60;23.67;;;;;;;;;;4960301;28;20261;-80
2022/12/03 08:24:39;;;;;;;30.10;23.40;;;;;;;;;;4926471;28;20222;-81
2022/12/03 08:27:15;;;;;;;28.83;23.53;;;;;;;;;;4954331;28;20229;-81
2022/12/03 08:29:41;;;;;;;30.77;22.57;;;;;;;;;;4949508;28;20245;-81
2022/12/03 08:32:09;;;;;;;27.93;22.77;;;;;;;;;;4952476;28;20218;-81
2022/12/03 08:34:39;;;;;;;25.37;22.60;;;;;;;;;;4947929;28;20328;-80
2022/12/03 08:37:14;;;;;;;28.27;23.57;;;;;;;;;;4970635;28;20227;-79
2022/12/03 08:39:45;;;;;;;27.77;23.27;;;;;;;;;;4940127;28;20467;-80
2022/12/03 08:42:42;;;;;;;29.67;24.23;;;;;;;;;;4943440;28;20217;-79
2022/12/03 08:45:30;;;;;;;28.83;22.20;;;;;;;;;;4941262;28;20236;-82
2022/12/03 08:48:28;;;;;;;27.43;21.90;;;;;;;;;;4958280;28;20322;-81
2022/12/03 08:50:56;;;;;;;29.93;22.17;;;;;;;;;;4975264;28;20225;-81
2022/12/03 08:53:34;;;;;;;25.23;21.67;;;;;;;;;;4939219;28;20356;-78
2022/12/03 08:56:04;;;;;;;25.27;21.70;;;;;;;;;;4930640;28;20310;-81
2022/12/03 08:58:43;;;;;;;28.90;22.53;;;;;;;;;;4922885;28;20919;-80
2022/12/03 09:01:11;;;;;;;27.53;21.63;;;;;;;;;;4943162;28;20260;-81
2022/12/03 09:03:51;;;;;;;25.30;21.23;;;;;;;;;;4957870;28;20285;-81
2022/12/03 09:06:16;;;;;;;25.87;21.20;;;;;;;;;;4958419;28;20225;-81
2022/12/03 09:08:44;;;;;;;24.97;21.17;;;;;;;;;;4920482;28;20227;-81
2022/12/03 09:11:10;;;;;;;31.67;22.83;;;;;;;;;;4941063;28;20237;-80
2022/12/03 09:13:35;;;;;;;27.03;21.57;;;;;;;;;;4957455;28;20925;-80
2022/12/03 09:16:01;;;;;;;28.93;21.13;;;;;;;;;;4931540;28;20233;-83
2022/12/03 09:18:26;;;;;;;27.60;22.70;;;;;;;;;;4938850;28;20240;-82
2022/12/03 09:20:55;;;;;;;25.47;21.90;;;;;;;;;;4946435;28;20280;-81
2022/12/03 09:23:22;;;;;;;27.60;23.10;;;;;;;;;;4939736;28;20229;-80
2022/12/03 09:25:52;;;;;;;27.03;21.77;;;;;;;;;;4976038;28;20237;-83
2022/12/03 09:28:23;;;;;;;28.50;21.63;;;;;;;;;;4935989;28;20229;-78
2022/12/03 09:30:49;;;;;;;29.07;21.83;;;;;;;;;;4927242;28;20314;-80
2022/12/03 09:33:14;;;;;;;25.63;22.20;;;;;;;;;;4957031;28;20648;-79
2022/12/03 09:35:42;;;;;;;27.30;22.57;;;;;;;;;;4929906;28;20311;-81
2022/12/03 09:38:08;;;;;;;27.07;23.07;;;;;;;;;;4925353;28;20242;-78
2022/12/03 09:40:38;;;;;;;26.87;22.47;;;;;;;;;;4935135;28;20241;-83
2022/12/03 09:43:07;;;;;;;25.80;21.43;;;;;;;;;;4924158;28;20300;-84
2022/12/03 09:45:32;;;;;;;27.37;21.37;;;;;;;;;;4922976;28;20227;-82
2022/12/03 09:47:58;;;;;;;27.23;22.27;;;;;;;;;;4933410;28;20230;-79
2022/12/03 09:50:25;;;;;;;27.00;22.10;;;;;;;;;;4974008;28;20225;-82
2022/12/03 09:52:54;;;;;;;29.27;22.73;;;;;;;;;;4932185;28;20290;-81
2022/12/03 09:55:22;;;;;;;24.20;20.77;;;;;;;;;;4945922;28;20238;-76
2022/12/03 09:57:57;;;;;;;25.70;21.77;;;;;;;;;;4957841;28;20714;-83
2022/12/03 10:00:26;;;;;;;27.33;22.30;;;;;;;;;;4959536;28;20218;-82
2022/12/03 10:02:57;;;;;;;25.33;21.60;;;;;;;;;;4927199;28;20313;-82
2022/12/03 10:05:22;;;;;;;23.90;20.80;;;;;;;;;;4930095;28;22558;-84
2022/12/03 10:08:06;;;;;;;27.53;21.80;;;;;;;;;;4925988;28;20234;-82
2022/12/03 10:10:38;;;;;;;29.10;21.60;;;;;;;;;;4940526;28;20241;-81
2022/12/03 10:13:06;;;;;;;25.87;21.37;;;;;;;;;;4952199;28;20231;-82
2022/12/03 10:15:31;;;;;;;27.57;22.77;;;;;;;;;;4928008;29;20230;-80
2022/12/03 10:17:57;;;;;;;24.77;21.00;;;;;;;;;;4941199;28;20381;-81
2022/12/03 10:20:30;;;;;;;27.80;22.33;;;;;;;;;;4933771;28;20229;-82
2022/12/03 10:23:00;;;;;;;24.03;21.07;;;;;;;;;;4973002;28;20249;-82
2022/12/03 10:25:26;;;;;;;29.97;22.37;;;;;;;;;;4914515;28;20230;-85
2022/12/03 10:28:00;;;;;;;29.50;21.47;;;;;;;;;;4930559;28;20241;-84
2022/12/03 10:30:27;;;;;;;26.33;22.47;;;;;;;;;;4938168;28;20233;-85
2022/12/03 10:32:55;;;;;;;26.57;22.03;;;;;;;;;;4918861;28;20227;-85
2022/12/03 10:35:23;;;;;;;27.13;21.63;;;;;;;;;;4909474;23;20733;-78
2022/12/03 10:38:02;;;;;;;25.57;20.67;;;;;;;;;;4922070;29;20319;-76
2022/12/03 10:40:31;;;;;;;24.80;20.93;;;;;;;;;;4892572;29;20259;-74
2022/12/03 10:43:21;;;;;;;24.63;21.83;;;;;;;;;;4934500;28;20262;-74
2022/12/03 10:45:52;;;;;;;25.73;21.27;;;;;;;;;;4944331;28;20223;-74
2022/12/03 10:48:20;;;;;;;26.03;20.47;;;;;;;;;;4925794;28;20219;-75
2022/12/03 10:50:56;;;;;;;26.67;20.70;;;;;;;;;;4930635;28;20300;-77
2022/12/03 10:53:27;;;;;;;26.03;21.47;;;;;;;;;;4904469;29;20922;-75
2022/12/03 10:55:58;;;;;;;23.87;20.20;;;;;;;;;;4925678;29;20226;-77
2022/12/03 10:58:30;;;;;;;25.47;21.07;;;;;;;;;;4910739;28;20309;-75
2022/12/03 11:00:58;;;;;;;23.97;21.30;;;;;;;;;;4926564;28;20738;-75
2022/12/03 11:03:28;;;;;;;24.17;20.70;;;;;;;;;;4894919;28;20309;-74
2022/12/03 11:05:56;;;;;;;28.03;21.47;;;;;;;;;;4942115;28;20238;-75
2022/12/03 11:08:35;;;;;;;29.00;23.47;;;;;;;;;;4938052;28;20234;-75
2022/12/03 11:11:15;;;;;;;24.33;19.90;;;;;;;;;;4921281;29;20231;-76
2022/12/03 11:13:49;;;;;;;23.70;19.20;;;;;;;;;;4905171;28;20218;-76
2022/12/03 11:16:40;;;;;;;25.60;21.83;;;;;;;;;;4902432;28;20254;-75
2022/12/03 11:19:11;;;;;;;25.63;20.53;;;;;;;;;;4930970;28;20783;-75
2022/12/03 11:22:08;;;;;;;28.57;21.97;;;;;;;;;;4914689;29;20255;-74
2022/12/03 11:24:38;;;;;;;23.20;19.40;;;;;;;;;;4904122;28;20227;-75
2022/12/03 11:27:05;;;;;;;26.43;20.73;;;;;;;;;;4879334;29;20227;-74
2022/12/03 11:29:47;;;;;;;29.57;20.60;;;;;;;;;;4908850;28;20238;-74
2022/12/03 11:32:38;;;;;;;27.57;20.13;;;;;;;;;;4914972;28;20228;-74
2022/12/03 11:35:26;;;;;;;22.93;19.67;;;;;;;;;;4918736;28;21310;-75
2022/12/03 11:37:51;;;;;;;27.63;20.97;;;;;;;;;;4926588;28;20233;-74
2022/12/03 11:40:17;;;;;;;23.87;20.70;;;;;;;;;;4918499;28;21838;-75
2022/12/03 11:42:49;;;;;;;23.77;19.53;;;;;;;;;;4932690;28;20223;-76
2022/12/03 11:45:31;;;;;;;25.73;20.77;;;;;;;;;;4898609;28;20223;-75
2022/12/03 11:47:57;;;;;;;30.07;21.33;;;;;;;;;;4888479;29;20472;-77
2022/12/03 11:50:25;;;;;;;24.23;21.17;;;;;;;;;;4921439;28;20799;-74
2022/12/03 11:52:57;;;;;;;26.00;21.53;;;;;;;;;;4906452;28;20244;-75
2022/12/03 11:55:36;;;;;;;25.00;21.13;;;;;;;;;;4934948;28;20266;-76
2022/12/03 11:58:12;;;;;;;27.50;21.77;;;;;;;;;;4922361;28;20297;-75
2022/12/03 12:00:37;;;;;;;27.67;22.27;;;;;;;;;;4902399;28;20235;-74
2022/12/03 12:03:03;;;;;;;27.33;23.10;;;;;;;;;;4903022;28;20274;-75
2022/12/03 12:05:32;;;;;;;25.27;22.33;;;;;;;;;;4929789;29;20245;-74
2022/12/03 12:08:03;;;;;;;25.43;21.30;;;;;;;;;;4926015;28;20293;-75
2022/12/03 12:10:37;;;;;;;26.90;22.77;;;;;;;;;;4891774;29;20374;-75
2022/12/03 12:13:02;;;;;;;26.50;22.40;;;;;;;;;;4890151;29;20271;-75
2022/12/03 12:15:37;;;;;;;27.30;22.90;;;;;;;;;;4902110;29;20239;-75
2022/12/03 12:18:40;;;;;;;27.53;23.20;;;;;;;;;;4921269;29;20231;-74
2022/12/03 12:21:43;;;;;;;25.00;22.07;;;;;;;;;;4922035;28;20238;-74
2022/12/03 12:24:27;;;;;;;26.83;22.03;;;;;;;;;;4919533;29;20278;-77
2022/12/03 12:27:07;;;;;;;27.83;22.37;;;;;;;;;;4933442;28;20227;-73
2022/12/03 12:29:33;;;;;;;30.17;23.43;;;;;;;;;;4895023;29;20234;-74
2022/12/03 12:32:09;;;;;;;27.93;23.20;;;;;;;;;;4916621;28;20311;-74
2022/12/03 12:34:48;;;;;;;30.50;23.90;;;;;;;;;;4908475;28;20659;-75
2022/12/03 12:37:27;;;;;;;29.37;24.13;;;;;;;;;;4902958;29;20243;-74
2022/12/03 12:39:55;;;;;;;28.33;23.27;;;;;;;;;;4886926;29;20223;-73
2022/12/03 12:42:41;;;;;;;31.23;23.03;;;;;;;;;;4900450;28;20384;-75
2022/12/03 12:45:19;;;;;;;30.97;23.93;;;;;;;;;;4883962;29;20224;-75
2022/12/03 12:48:02;;;;;;;29.70;25.17;;;;;;;;;;4897844;29;20227;-76
2022/12/03 12:50:34;;;;;;;26.90;23.47;;;;;;;;;;4933892;28;20245;-75
2022/12/03 12:53:07;;;;;;;28.37;24.20;;;;;;;;;;4933317;28;20249;-75
2022/12/03 12:55:33;;;;;;;28.80;24.60;;;;;;;;;;4922059;28;20287;-74
2022/12/03 12:58:02;;;;;;;29.90;25.63;;;;;;;;;;4916254;28;20234;-75
2022/12/03 13:00:28;;;;;;;30.60;24.93;;;;;;;;;;4903606;28;20241;-76
2022/12/03 13:03:00;;;;;;;28.80;22.20;;;;;;;;;;4937053;28;20219;-76
2022/12/03 13:05:32;;;;;;;28.87;23.30;;;;;;;;;;4919436;28;20237;-75
2022/12/03 13:07:57;;;;;;;26.97;23.30;;;;;;;;;;4925283;28;20227;-75
2022/12/03 13:10:23;;;;;;;28.60;24.37;;;;;;;;;;4925165;28;20230;-77
2022/12/03 13:12:48;;;;;;;28.33;24.37;;;;;;;;;;4924673;29;20289;-76
2022/12/03 13:15:39;;;;;;;30.40;24.73;;;;;;;;;;4920147;28;20277;-75
2022/12/03 13:18:27;;;;;;;30.67;23.93;;;;;;;;;;4923309;28;20285;-76
2022/12/03 13:20:53;;;;;;;30.57;24.60;;;;;;;;;;4915559;29;20946;-76
2022/12/03 13:23:21;;;;;;;29.40;25.07;;;;;;;;;;4929090;28;20211;-75
2022/12/03 13:25:50;;;;;;;27.10;24.13;;;;;;;;;;4929769;28;20227;-75
2022/12/03 13:28:19;;;;;;;33.87;26.50;;;;;;;;;;4923359;28;20231;-75
2022/12/03 13:30:45;;;;;;;28.90;25.73;;;;;;;;;;4903858;29;20227;-75
2022/12/03 13:33:25;;;;;;;30.60;25.80;;;;;;;;;;4904901;29;20290;-76
2022/12/03 13:35:54;;;;;;;31.20;23.87;;;;;;;;;;4910831;29;20226;-75
2022/12/03 13:38:22;;;;;;;29.83;24.83;;;;;;;;;;4900598;28;20231;-75
2022/12/03 13:41:01;;;;;;;29.17;24.63;;;;;;;;;;4893668;29;20358;-77
2022/12/03 13:43:30;;;;;;;29.33;24.43;;;;;;;;;;4907237;28;20238;-77
2022/12/03 13:45:59;;;;;;;28.07;24.23;;;;;;;;;;4901782;29;20649;-77
2022/12/03 13:48:35;;;;;;;32.80;26.10;;;;;;;;;;4937021;28;20225;-76
2022/12/03 13:51:09;;;;;;;29.80;25.70;;;;;;;;;;4920206;28;20617;-77
2022/12/03 13:53:38;;;;;;;31.23;25.57;;;;;;;;;;4940706;28;20800;-74
2022/12/03 13:56:31;;;;;;;28.30;25.30;;;;;;;;;;4893886;29;20247;-74
2022/12/03 13:58:59;;;;;;;33.67;25.50;;;;;;;;;;4937089;28;20336;-74
2022/12/03 14:01:26;;;;;;;31.17;25.43;;;;;;;;;;4923395;28;20226;-75
2022/12/03 14:03:54;;;;;;;32.07;25.73;;;;;;;;;;4924713;29;20222;-74
2022/12/03 14:06:20;;;;;;;33.20;24.23;;;;;;;;;;4906501;28;20254;-76
2022/12/03 14:08:51;;;;;;;31.10;25.87;;;;;;;;;;4940669;28;20704;-77
2022/12/03 14:14:01;;;;;;;32.00;24.17;;;;;;;;;;4938025;28;20234;-74
2022/12/03 14:16:29;;;;;;;31.33;24.70;;;;;;;;;;4923257;28;20221;-75
2022/12/03 14:18:54;;;;;;;32.97;24.50;;;;;;;;;;4924408;29;20233;-74
2022/12/03 14:21:20;;;;;;;28.40;24.53;;;;;;;;;;4939560;28;20223;-75
2022/12/03 14:23:46;;;;;;;28.57;23.70;;;;;;;;;;4923185;28;20732;-75
2022/12/03 14:26:12;;;;;;;28.00;23.80;;;;;;;;;;4921337;28;20234;-76
2022/12/03 14:28:38;;;;;;;30.03;24.77;;;;;;;;;;4923547;28;20309;-75
2022/12/03 14:31:07;;;;;;;29.90;24.63;;;;;;;;;;4922199;28;20226;-76
2022/12/03 14:33:34;;;;;;;29.00;24.00;;;;;;;;;;4939765;28;20728;-76
2022/12/03 14:36:00;;;;;;;32.43;25.43;;;;;;;;;;4907445;29;20227;-75
2022/12/03 14:38:26;;;;;;;32.67;25.40;;;;;;;;;;4907200;28;20230;-75
2022/12/03 14:40:51;;;;;;;30.50;24.73;;;;;;;;;;4939518;28;20262;-75
2022/12/03 14:43:20;;;;;;;33.77;25.10;;;;;;;;;;4941932;28;20721;-75
2022/12/03 14:45:45;;;;;;;31.37;25.50;;;;;;;;;;4927005;29;20290;-75
2022/12/03 14:48:12;;;;;;;25.00;20.93;;;;;;;;;;4942621;28;20219;-75
2022/12/03 14:50:39;;;;;;;28.47;23.70;;;;;;;;;;4942340;28;20309;-74